Time;durP1;ratioP1;P1;durP2;ratioP2;P2;SDS_P1;SDS_P2;PMS_P1;PMS_P2;Temp;Humidity;BMP_temperature;BMP_pressure;BME280_temperature;BME280_humidity;BME280_pressure;Samples;Min_cycle;Max_cycle;Signal;HPM_P1;HPM_P2
2022/04/15 00:02:12;;;;;;;16.38;13.30;;;15.60;77.90;;;14.49;82.22;96387.53;4907471;28;20607;-65
2022/04/15 00:04:38;;;;;;;16.83;12.88;;;15.60;78.20;;;14.46;80.49;96387.94;4913525;28;20442;-65
2022/04/15 00:07:04;;;;;;;19.60;13.50;;;15.50;77.50;;;14.43;80.71;96388.34;4903177;28;20809;-64
2022/04/15 00:09:30;;;;;;;13.77;12.38;;;15.40;78.20;;;14.41;80.82;96380.56;4921420;28;20195;-65
2022/04/15 00:12:00;;;;;;;13.48;12.07;;;15.40;77.40;;;14.40;81.16;96367.56;4923881;28;20276;-67
2022/04/15 00:14:26;;;;;;;16.77;12.25;;;15.50;77.40;;;14.40;80.70;96375.50;4902309;28;20810;-64
2022/04/15 00:16:52;;;;;;;14.85;12.40;;;15.60;76.90;;;14.37;80.29;96386.50;4882067;28;20726;-65
2022/04/15 00:19:19;;;;;;;17.98;14.20;;;15.50;77.10;;;14.35;81.66;96399.94;4920034;28;20349;-66
2022/04/15 00:21:45;;;;;;;16.05;14.45;;;15.50;78.10;;;14.35;81.74;96407.06;4915434;28;20570;-66
2022/04/15 00:24:11;;;;;;;17.88;13.52;;;15.40;78.80;;;14.32;82.30;96418.06;4915556;28;20350;-66
2022/04/15 00:26:37;;;;;;;15.32;13.73;;;15.40;79.10;;;14.32;82.43;96412.78;4915450;28;20237;-66
2022/04/15 00:29:06;;;;;;;14.82;13.23;;;15.50;78.90;;;14.29;83.20;96408.69;4943662;28;20777;-65
2022/04/15 00:31:33;;;;;;;17.80;14.82;;;15.40;78.60;;;14.28;82.32;96401.78;4887401;28;20573;-66
2022/04/15 00:34:03;;;;;;;16.35;14.55;;;15.50;78.60;;;14.26;83.89;96403.81;4909570;28;20595;-66
2022/04/15 00:36:29;;;;;;;16.52;14.68;;;15.40;79.00;;;14.25;82.77;96420.69;4924257;28;20429;-66
2022/04/15 00:38:55;;;;;;;17.38;15.07;;;15.40;79.10;;;14.23;82.99;96419.25;4899915;28;20401;-66
2022/04/15 00:41:22;;;;;;;17.27;14.63;;;15.40;79.10;;;14.21;83.19;96418.66;4897539;28;20215;-66
2022/04/15 00:43:48;;;;;;;16.63;14.93;;;15.20;79.40;;;14.18;83.77;96408.50;4907719;28;20269;-65
2022/04/15 00:46:15;;;;;;;16.77;14.43;;;15.30;79.50;;;14.17;85.01;96412.16;4899343;28;20315;-66
2022/04/15 00:48:41;;;;;;;15.75;14.18;;;15.30;79.40;;;14.17;84.62;96414.78;4910361;28;20357;-65
2022/04/15 00:51:08;;;;;;;18.75;15.25;;;15.30;79.30;;;14.17;84.51;96420.09;4912546;28;20354;-66
2022/04/15 00:53:34;;;;;;;17.95;15.65;;;15.40;79.30;;;14.19;83.97;96426.00;4939550;28;20452;-65
2022/04/15 00:56:05;;;;;;;18.73;15.73;;;15.40;79.30;;;14.14;85.86;96431.06;4931302;28;20881;-66
2022/04/15 00:58:31;;;;;;;;;;;15.10;80.00;;;14.12;87.85;96422.53;4906586;28;20730;-66
2022/04/15 01:01:05;;;;;;;17.58;15.88;;;15.30;79.80;;;14.08;83.59;96428.22;4920024;28;20278;-66
2022/04/15 01:03:31;;;;;;;17.88;15.45;;;15.20;80.00;;;14.08;84.86;96420.31;4910464;28;20554;-64
2022/04/15 01:05:59;;;;;;;18.40;15.85;;;15.20;80.00;;;14.09;84.23;96398.13;4891872;28;20377;-65
2022/04/15 01:08:28;;;;;;;17.83;16.13;;;15.30;80.00;;;14.10;84.88;96405.03;4934646;28;20521;-65
2022/04/15 01:10:58;;;;;;;18.73;16.33;;;15.30;79.80;;;14.10;86.41;96404.22;4873893;28;20591;-66
2022/04/15 01:13:26;;;;;;;18.38;16.38;;;15.20;80.10;;;14.06;84.97;96403.00;4923374;28;20215;-66
2022/04/15 01:15:55;;;;;;;18.77;16.75;;;15.10;80.10;;;14.04;85.66;96405.84;4902338;28;20423;-66
2022/04/15 01:18:22;;;;;;;18.65;16.65;;;15.10;80.20;;;14.01;85.97;96406.22;4919060;28;20493;-66
2022/04/15 01:20:50;;;;;;;18.25;16.35;;;15.10;80.00;;;13.98;86.00;96406.66;4907999;28;20347;-66
2022/04/15 01:23:17;;;;;;;17.60;15.68;;;15.10;80.20;;;13.97;86.27;96406.84;4861688;28;20712;-66
2022/04/15 01:25:43;;;;;;;18.08;16.27;;;15.10;80.20;;;13.98;86.12;96409.28;4907466;28;20328;-66
2022/04/15 01:28:10;;;;;;;17.75;16.05;;;15.10;80.10;;;13.98;86.14;96409.28;4915601;28;20562;-65
2022/04/15 01:30:36;;;;;;;18.95;17.05;;;15.10;80.00;;;13.97;86.29;96399.72;4921000;28;20219;-65
2022/04/15 01:33:05;;;;;;;18.63;16.73;;;15.10;80.00;;;13.95;86.19;96401.75;4903535;28;20363;-66
2022/04/15 01:35:33;;;;;;;17.83;16.00;;;15.10;80.00;;;13.94;86.33;96400.13;4910094;28;20487;-65
2022/04/15 01:37:59;;;;;;;19.08;17.17;;;15.10;79.70;;;13.87;85.77;96412.53;4918700;28;20479;-64
2022/04/15 01:40:26;;;;;;;20.65;18.50;;;14.90;79.90;;;13.79;85.61;96418.00;4889383;28;20453;-66
2022/04/15 01:42:52;;;;;;;19.02;17.23;;;14.80;80.80;;;13.75;86.24;96422.06;4934175;28;20500;-66
2022/04/15 01:45:18;;;;;;;20.67;18.38;;;14.80;80.90;;;13.73;87.15;96417.00;4947115;28;20428;-66
2022/04/15 01:47:47;;;;;;;20.33;18.30;;;14.90;81.00;;;13.71;88.17;96420.84;4911476;28;20410;-66
2022/04/15 01:50:13;;;;;;;20.17;18.25;;;14.80;81.10;;;13.71;87.65;96410.28;4903185;28;20493;-66
2022/04/15 01:52:48;;;;;;;21.75;18.48;;;14.90;81.40;;;13.73;86.81;96424.09;4922074;28;20238;-66
2022/04/15 01:55:14;;;;;;;19.70;17.60;;;14.90;81.10;;;13.74;88.17;96433.66;4930834;28;20356;-65
2022/04/15 01:57:41;;;;;;;19.67;17.77;;;15.00;80.90;;;13.74;88.41;96441.59;4940113;23;20053;-68
2022/04/15 02:00:09;;;;;;;20.60;18.48;;;14.90;81.10;;;13.75;88.59;96448.50;4994269;28;20184;-68
2022/04/15 02:02:35;;;;;;;19.92;17.92;;;15.00;81.30;;;13.75;87.86;96446.69;4993981;22;20799;-71
2022/04/15 02:05:01;;;;;;;26.15;18.92;;;14.90;81.40;;;13.76;88.68;96436.91;4891740;28;20218;-71
2022/04/15 02:07:27;;;;;;;20.75;18.75;;;14.90;81.30;;;13.75;88.02;96446.69;4905860;28;20225;-71
2022/04/15 02:09:53;;;;;;;19.17;17.23;;;14.90;81.40;;;13.79;88.71;96439.16;4893427;28;20364;-72
2022/04/15 02:12:19;;;;;;;21.65;19.42;;;15.00;81.10;;;13.79;87.87;96439.16;4901449;28;20184;-71
2022/04/15 02:14:47;;;;;;;20.25;18.25;;;15.00;81.10;;;13.77;88.12;96435.91;4928167;28;20786;-72
2022/04/15 02:17:13;;;;;;;20.75;18.70;;;15.00;80.50;;;13.77;87.59;96443.84;4908572;28;20344;-69
2022/04/15 02:19:39;;;;;;;20.00;18.00;;;15.00;80.60;;;13.77;87.33;96441.19;4886096;28;20533;-70
2022/04/15 02:22:05;;;;;;;21.17;18.95;;;15.00;81.00;;;13.77;88.77;96443.84;4913185;28;20463;-70
2022/04/15 02:24:31;;;;;;;20.42;18.33;;;14.90;81.20;;;13.74;88.75;96441.59;4921793;28;20686;-71
2022/04/15 02:26:57;;;;;;;24.13;20.35;;;14.90;81.20;;;13.76;89.14;96450.13;4885378;28;21007;-72
2022/04/15 02:29:24;;;;;;;21.35;19.25;;;14.90;81.40;;;13.73;88.55;96451.34;4927172;28;20068;-71
2022/04/15 02:31:50;;;;;;;20.45;18.45;;;14.90;81.20;;;13.74;88.22;96454.81;4918470;28;20210;-71
2022/04/15 02:34:16;;;;;;;22.10;19.90;;;15.00;81.00;;;13.75;88.26;96445.88;4911254;28;20586;-71
2022/04/15 02:36:42;;;;;;;22.33;20.13;;;14.90;80.70;;;13.71;87.53;96444.63;4909364;28;20477;-74
2022/04/15 02:39:10;;;;;;;22.40;20.08;;;14.80;80.90;;;13.68;87.94;96445.03;4890148;28;20328;-72
2022/04/15 02:41:39;;;;;;;23.95;21.52;;;14.90;81.10;;;13.67;88.46;96446.88;4897253;28;20699;-72
2022/04/15 02:44:09;;;;;;;22.30;20.00;;;14.90;81.00;;;13.65;88.88;96454.19;4885307;28;20509;-71
2022/04/15 02:46:35;;;;;;;22.58;20.27;;;14.80;81.50;;;13.64;89.01;96451.75;4896166;28;20556;-72
2022/04/15 02:49:02;;;;;;;24.67;22.10;;;14.80;81.70;;;13.64;89.24;96459.69;4896313;28;20714;-71
2022/04/15 02:51:29;;;;;;;23.35;21.02;;;14.80;81.70;;;13.63;90.05;96465.97;4897992;28;20482;-71
2022/04/15 02:53:55;;;;;;;22.88;20.67;;;14.90;81.60;;;13.63;88.70;96471.28;4912957;28;20156;-70
2022/04/15 02:56:21;;;;;;;22.80;20.45;;;14.90;81.40;;;13.63;89.15;96476.56;4930802;28;20533;-71
2022/04/15 02:58:47;;;;;;;23.27;20.80;;;14.90;81.40;;;13.61;89.87;96468.81;4932174;28;20497;-71
2022/04/15 03:01:13;;;;;;;23.48;21.17;;;14.80;81.60;;;13.60;89.05;96469.84;4923206;28;20587;-70
2022/04/15 03:03:39;;;;;;;23.42;21.10;;;14.70;81.50;;;13.55;89.24;96469.59;4906225;28;20491;-71
2022/04/15 03:06:05;;;;;;;22.85;20.63;;;14.70;81.80;;;13.54;89.65;96464.50;4892107;28;20265;-72
2022/04/15 03:08:32;;;;;;;22.27;20.10;;;14.70;81.80;;;13.53;89.27;96468.16;4887180;28;20410;-70
2022/04/15 03:11:00;;;;;;;21.58;19.35;;;14.70;81.60;;;13.53;89.90;96461.06;4895071;28;20438;-72
2022/04/15 03:13:26;;;;;;;21.65;19.65;;;14.80;81.40;;;13.53;89.94;96466.34;4921148;28;20461;-70
2022/04/15 03:15:53;;;;;;;21.65;19.55;;;14.70;81.50;;;13.52;89.27;96471.81;4884417;28;20366;-71
2022/04/15 03:18:19;;;;;;;20.40;18.40;;;14.70;81.30;;;13.51;90.07;96467.56;4905487;28;20382;-71
2022/04/15 03:20:45;;;;;;;21.42;19.05;;;14.80;81.30;;;13.51;89.90;96468.38;4894424;28;20349;-71
2022/04/15 03:23:11;;;;;;;20.95;18.92;;;14.80;81.10;;;13.52;90.01;96477.13;4911922;28;20361;-71
2022/04/15 03:25:37;;;;;;;21.23;19.05;;;14.70;81.20;;;13.50;89.63;96464.09;4896186;28;20329;-71
2022/04/15 03:28:04;;;;;;;20.90;18.90;;;14.70;81.30;;;13.52;89.27;96463.91;4888293;28;20356;-70
2022/04/15 03:30:30;;;;;;;21.60;19.27;;;14.70;81.10;;;13.52;89.93;96466.53;4902895;28;20328;-71
2022/04/15 03:32:56;;;;;;;20.98;19.08;;;14.70;81.10;;;13.49;89.11;96458.00;4873538;28;20303;-71
2022/04/15 03:35:23;;;;;;;21.25;18.92;;;14.70;81.20;;;13.47;89.73;96457.38;4887122;28;20202;-71
2022/04/15 03:37:52;;;;;;;22.60;20.33;;;14.70;81.20;;;13.47;88.85;96453.94;4895829;28;20325;-70
2022/04/15 03:40:19;;;;;;;22.20;19.88;;;14.60;81.20;;;13.43;89.28;96461.44;4879912;28;20399;-70
2022/04/15 03:42:47;;;;;;;23.00;20.55;;;14.60;81.60;;;13.42;89.83;96462.44;4906351;28;20370;-71
2022/04/15 03:45:18;;;;;;;22.15;19.98;;;14.60;81.60;;;13.39;89.42;96462.84;4905264;28;20411;-70
2022/04/15 03:47:44;;;;;;;22.35;20.15;;;14.60;81.50;;;13.36;90.11;96457.97;4910788;28;20571;-72
2022/04/15 03:50:11;;;;;;;22.45;19.90;;;14.60;81.60;;;13.36;90.32;96457.97;4905768;28;20208;-71
2022/04/15 03:52:46;;;;;;;23.30;20.25;;;14.60;81.50;;;13.38;90.36;96460.41;4911376;28;20518;-72
2022/04/15 03:55:14;;;;;;;22.52;20.35;;;14.60;81.30;;;13.37;89.92;96456.94;4881984;28;20214;-73
2022/04/15 03:57:40;;;;;;;23.30;20.92;;;14.60;81.20;;;13.37;89.30;96464.88;4894601;28;20374;-71
2022/04/15 04:00:08;;;;;;;24.00;21.50;;;14.70;81.30;;;13.37;90.18;96464.06;4913092;28;20315;-71
2022/04/15 04:02:35;;;;;;;22.90;20.77;;;14.60;81.30;;;13.36;90.11;96465.91;4869624;28;20388;-72
2022/04/15 04:05:01;;;;;;;24.75;22.35;;;14.60;81.50;;;13.30;89.31;96457.91;4873166;28;20383;-70
2022/04/15 04:07:27;;;;;;;23.85;21.48;;;14.50;81.60;;;13.26;89.99;96460.16;4862756;28;20283;-71
2022/04/15 04:09:53;;;;;;;24.90;22.38;;;14.50;81.90;;;13.24;89.77;96459.53;4911360;28;20295;-70
2022/04/15 04:12:19;;;;;;;23.77;21.50;;;14.50;82.00;;;13.23;90.22;96460.53;4899616;28;20433;-70
2022/04/15 04:14:46;;;;;;;24.13;21.73;;;14.50;81.80;;;13.22;90.85;96469.47;4919332;28;20195;-71
2022/04/15 04:17:12;;;;;;;25.00;22.40;;;14.50;81.90;;;13.23;90.67;96475.56;4914718;28;20442;-71
2022/04/15 04:19:38;;;;;;;25.40;22.83;;;14.60;81.90;;;13.21;91.14;96472.31;4908840;28;20326;-71
2022/04/15 04:22:04;;;;;;;25.17;22.73;;;14.50;82.00;;;13.20;90.96;96468.88;4866819;28;20212;-72
2022/04/15 04:24:31;;;;;;;25.67;22.98;;;14.60;81.90;;;13.21;90.78;96473.13;4895475;28;20382;-72
2022/04/15 04:26:57;;;;;;;26.15;23.40;;;14.50;81.80;;;13.20;91.51;96479.44;4908686;28;20296;-71
2022/04/15 04:29:23;;;;;;;25.42;22.92;;;14.50;82.00;;;13.20;90.80;96487.34;4888289;28;20322;-72
2022/04/15 04:31:50;;;;;;;26.42;23.77;;;14.50;82.10;;;13.16;91.95;96494.81;4909153;28;20397;-72
2022/04/15 04:34:16;;;;;;;27.50;23.92;;;14.40;82.20;;;13.14;91.87;96485.47;4895015;28;20317;-70
2022/04/15 04:36:42;;;;;;;27.23;24.48;;;14.40;82.40;;;13.14;91.91;96488.09;4907176;28;20445;-70
2022/04/15 04:39:09;;;;;;;28.58;25.77;;;14.40;82.40;;;13.12;92.55;96484.81;4912181;28;20369;-71
2022/04/15 04:41:36;;;;;;;27.35;24.77;;;14.40;82.40;;;13.11;92.38;96491.13;4898031;28;20471;-71
2022/04/15 04:44:03;;;;;;;27.00;24.40;;;14.40;82.60;;;13.10;91.95;96492.94;4898718;28;20311;-71
2022/04/15 04:46:29;;;;;;;26.17;23.50;;;14.40;82.50;;;13.11;91.81;96499.03;4887328;28;20132;-71
2022/04/15 04:48:55;;;;;;;27.60;25.00;;;14.40;82.50;;;13.11;92.17;96499.84;4890970;28;20502;-70
2022/04/15 04:51:21;;;;;;;25.73;23.25;;;14.50;82.30;;;13.11;92.16;96504.31;4895900;28;20582;-71
2022/04/15 04:53:47;;;;;;;29.02;26.13;;;14.50;82.20;;;13.12;92.25;96512.03;4929534;28;20351;-72
2022/04/15 04:56:15;;;;;;;26.33;23.70;;;14.50;82.30;;;13.14;92.24;96509.25;4894392;28;20498;-72
2022/04/15 04:58:42;;;;;;;27.02;24.40;;;14.50;82.30;;;13.14;92.34;96506.59;4908885;28;20554;-72
2022/04/15 05:01:08;;;;;;;27.25;24.15;;;14.60;82.20;;;13.16;92.09;96513.31;4917779;28;20782;-72
2022/04/15 05:03:34;;;;;;;27.35;24.65;;;14.60;82.00;;;13.16;92.18;96520.41;4896496;28;20355;-72
2022/04/15 05:06:00;;;;;;;28.40;25.45;;;14.50;82.20;;;13.17;92.54;96524.69;4908641;28;20387;-72
2022/04/15 05:08:26;;;;;;;27.33;24.58;;;14.50;82.10;;;13.18;92.36;96521.06;4910208;28;20355;-72
2022/04/15 05:10:52;;;;;;;27.02;24.23;;;14.50;82.30;;;13.19;91.71;96528.00;4896677;28;20367;-73
2022/04/15 05:13:18;;;;;;;26.98;24.27;;;14.60;82.20;;;13.20;92.56;96524.34;4908295;28;20371;-72
2022/04/15 05:15:44;;;;;;;28.23;25.23;;;14.60;81.90;;;13.21;92.31;96531.25;4879959;28;20371;-72
2022/04/15 05:18:10;;;;;;;27.67;24.88;;;14.60;81.90;;;13.22;92.63;96534.69;4916957;28;20771;-72
2022/04/15 05:20:37;;;;;;;25.92;23.42;;;14.60;81.90;;;13.23;92.84;96538.97;4912002;28;20884;-73
2022/04/15 05:23:03;;;;;;;27.52;24.75;;;14.60;81.90;;;13.24;92.00;96538.78;4899010;28;20813;-72
2022/04/15 05:25:29;;;;;;;29.02;25.63;;;14.60;82.00;;;13.26;92.60;96536.75;4938074;28;20207;-72
2022/04/15 05:27:58;;;;;;;26.40;23.77;;;14.70;81.60;;;13.26;92.17;96530.66;4911874;28;20379;-72
2022/04/15 05:30:25;;;;;;;26.77;24.17;;;14.60;81.40;;;13.28;91.42;96542.66;4910649;28;20725;-72
2022/04/15 05:32:51;;;;;;;26.52;23.83;;;14.70;81.50;;;13.30;92.43;96539.81;4900111;28;20436;-71
2022/04/15 05:35:17;;;;;;;26.67;24.17;;;14.70;81.30;;;13.32;91.16;96538.59;4980843;28;20571;-64
2022/04/15 05:37:43;;;;;;;27.45;24.77;;;14.70;81.40;;;13.33;91.48;96542.88;4934583;28;20365;-67
2022/04/15 05:40:10;;;;;;;26.85;24.23;;;14.80;81.50;;;13.31;92.41;96547.53;4915555;28;20506;-73
2022/04/15 05:42:36;;;;;;;27.50;24.85;;;14.70;81.70;;;13.30;91.42;96545.91;4898722;28;20366;-66
2022/04/15 05:45:02;;;;;;;26.55;24.13;;;14.60;81.80;;;13.33;91.47;96550.81;4884005;28;20378;-66
2022/04/15 05:47:28;;;;;;;28.00;25.30;;;14.60;81.70;;;13.31;91.87;96552.03;4905752;28;20353;-66
2022/04/15 05:49:54;;;;;;;28.92;26.10;;;14.70;81.60;;;13.33;91.29;96547.34;4885188;28;20609;-71
2022/04/15 05:52:20;;;;;;;26.67;23.90;;;14.70;81.70;;;13.34;92.12;96551.63;4911298;28;20388;-70
2022/04/15 05:54:46;;;;;;;27.27;24.50;;;14.70;81.50;;;13.35;92.40;96554.09;4890043;28;20434;-70
2022/04/15 05:57:12;;;;;;;27.85;24.85;;;14.80;81.40;;;13.35;92.53;96554.09;4927628;28;20329;-70
2022/04/15 05:59:38;;;;;;;27.20;24.30;;;14.80;81.50;;;13.40;92.42;96556.16;4902043;28;20328;-71
2022/04/15 06:02:04;;;;;;;28.40;25.52;;;14.90;81.40;;;13.42;91.35;96562.88;4889895;28;20369;-70
2022/04/15 06:04:31;;;;;;;26.23;23.65;;;14.80;81.10;;;13.45;91.91;96565.13;4908725;28;20311;-70
2022/04/15 06:06:57;;;;;;;30.98;26.65;;;15.00;80.90;;;13.48;91.10;96570.00;4915832;28;20421;-70
2022/04/15 06:09:23;;;;;;;38.53;33.78;;;14.90;81.00;;;13.52;92.00;96564.31;4917598;28;20299;-71
2022/04/15 06:11:52;;;;;;;28.48;25.85;;;15.00;80.70;;;13.53;91.05;96569.41;4926479;28;20295;-70
2022/04/15 06:14:22;;;;;;;28.48;25.55;;;15.00;80.70;;;13.59;91.18;96571.31;4894102;28;20409;-71
2022/04/15 06:16:49;;;;;;;29.00;25.95;;;15.10;80.40;;;13.64;90.89;96573.34;4907923;28;20488;-71
2022/04/15 06:19:16;;;;;;;28.80;25.77;;;15.10;79.80;;;13.69;91.07;96570.94;4884064;28;20540;-71
2022/04/15 06:21:42;;;;;;;36.10;32.47;;;15.20;79.80;;;13.74;91.31;96579.06;4882289;28;20440;-71
2022/04/15 06:24:09;;;;;;;31.02;27.73;;;15.30;79.90;;;13.77;90.48;96582.13;4890484;28;20365;-71
2022/04/15 06:26:35;;;;;;;30.23;27.00;;;15.30;79.00;;;13.83;89.98;96577.91;4900805;28;20869;-70
2022/04/15 06:29:02;;;;;;;24.08;21.52;;;15.50;78.50;;;13.88;89.29;96578.13;4908079;28;20331;-73
2022/04/15 06:31:28;;;;;;;23.80;21.35;;;15.50;78.20;;;13.93;88.46;96575.69;4888593;28;20488;-73
2022/04/15 06:33:54;;;;;;;24.25;21.67;;;15.50;78.20;;;13.98;89.56;96581.19;4897065;28;20356;-71
2022/04/15 06:36:20;;;;;;;30.58;27.40;;;15.60;78.00;;;14.02;89.51;96577.16;4898106;28;20335;-67
2022/04/15 06:38:46;;;;;;;25.75;23.00;;;15.60;78.20;;;14.03;87.96;96589.38;4900925;28;20361;-67
2022/04/15 06:41:13;;;;;;;26.60;23.92;;;15.50;78.30;;;14.07;89.14;96584.50;4871254;28;20767;-67
2022/04/15 06:43:39;;;;;;;25.05;22.38;;;15.70;78.40;;;14.10;87.77;96584.09;4889590;28;20374;-68
2022/04/15 06:46:05;;;;;;;23.02;20.65;;;15.70;78.10;;;14.12;88.12;96589.19;4889859;28;20364;-67
2022/04/15 06:48:32;;;;;;;30.48;27.27;;;15.80;77.00;;;14.17;87.21;96592.88;4887127;28;20224;-66
2022/04/15 06:50:58;;;;;;;42.55;37.90;;;15.90;76.60;;;14.25;86.85;96594.50;4865126;28;20343;-67
2022/04/15 06:53:24;;;;;;;27.25;24.55;;;16.00;76.10;;;14.26;87.42;96593.53;4906578;28;20425;-67
2022/04/15 06:55:51;;;;;;;22.77;20.45;;;16.00;75.70;;;14.31;87.20;96594.53;4896897;28;20468;-66
2022/04/15 06:58:18;;;;;;;23.50;21.00;;;16.10;75.40;;;14.36;85.57;96594.75;4902477;28;20256;-67
2022/04/15 07:00:44;;;;;;;23.20;20.55;;;16.10;75.00;;;14.39;85.97;96598.81;4884093;28;20317;-68
2022/04/15 07:03:12;;;;;;;22.80;20.38;;;16.10;74.90;;;14.42;85.34;96598.44;4913127;28;20283;-67
2022/04/15 07:05:39;;;;;;;24.15;21.38;;;16.10;74.50;;;14.46;84.87;96604.97;4893347;28;20407;-73
2022/04/15 07:08:10;;;;;;;22.35;20.05;;;16.10;74.70;;;14.54;85.11;96606.63;4892084;28;20363;-67
2022/04/15 07:10:37;;;;;;;23.30;20.92;;;16.40;74.80;;;14.60;84.84;96606.63;4936770;28;20502;-66
2022/04/15 07:13:03;;;;;;;22.00;19.65;;;16.50;74.60;;;14.72;83.97;96606.06;4904951;28;20425;-66
2022/04/15 07:15:29;;;;;;;21.42;19.42;;;16.60;73.50;;;14.80;82.95;96603.19;4902576;28;20354;-67
2022/04/15 07:18:00;;;;;;;21.33;19.23;;;16.70;73.30;;;14.89;83.06;96604.63;4909407;28;20493;-73
2022/04/15 07:20:26;;;;;;;20.95;18.95;;;16.90;72.60;;;14.98;83.20;96603.41;4904449;28;20418;-73
2022/04/15 07:22:58;;;;;;;21.15;19.00;;;16.90;71.60;;;15.01;82.50;96598.53;4892352;28;20419;-72
2022/04/15 07:25:25;;;;;;;22.95;19.95;;;16.90;71.40;;;15.05;82.90;96609.53;4894740;28;20760;-73
2022/04/15 07:27:51;;;;;;;23.58;19.25;;;16.90;71.50;;;15.07;81.40;96612.78;4912098;28;20587;-70
2022/04/15 07:30:20;;;;;;;21.80;19.50;;;16.90;72.00;;;15.10;81.21;96616.84;4875562;28;20410;-73
2022/04/15 07:32:46;;;;;;;22.48;19.13;;;16.80;72.70;;;15.09;81.23;96616.03;4880347;28;20491;-73
2022/04/15 07:35:12;;;;;;;20.73;18.60;;;16.80;72.50;;;15.10;82.05;96612.38;4872394;28;20455;-74
2022/04/15 07:37:38;;;;;;;21.15;19.02;;;16.70;73.10;;;15.11;80.91;96606.03;4892978;28;20415;-74
2022/04/15 07:40:05;;;;;;;21.60;19.30;;;16.80;72.20;;;15.14;82.09;96610.13;4913488;28;20322;-74
2022/04/15 07:46:13;;;;;;;20.25;18.13;;;17.10;71.50;;;15.27;80.32;96613.59;4938258;28;20488;-65
2022/04/15 07:48:39;;;;;;;19.85;17.77;;;17.30;70.20;;;15.41;79.65;96613.59;4919760;28;20509;-66
2022/04/15 07:51:05;;;;;;;20.20;18.10;;;17.70;69.10;;;15.57;80.98;96618.41;4891733;28;20320;-65
2022/04/15 07:53:31;;;;;;;19.83;17.08;;;18.00;68.80;;;15.74;79.76;96619.66;4890478;28;20423;-66
2022/04/15 07:55:58;;;;;;;17.75;15.90;;;18.40;67.10;;;16.03;78.86;96612.19;4918662;28;20364;-66
2022/04/15 07:58:24;;;;;;;16.63;14.90;;;19.00;63.90;;;16.40;78.63;96607.94;4900745;28;20613;-66
2022/04/15 08:00:50;;;;;;;20.35;15.77;;;19.60;62.40;;;16.82;77.96;96611.81;4897025;28;20699;-73
2022/04/15 08:03:20;;;;;;;16.52;14.68;;;20.10;61.90;;;17.15;76.45;96612.34;4914161;28;20377;-72
2022/04/15 08:05:49;;;;;;;21.60;17.15;;;20.20;60.50;;;17.42;74.48;96601.47;4898016;28;20317;-73
2022/04/15 08:08:15;;;;;;;20.08;17.70;;;20.20;59.90;;;17.63;73.18;96602.88;4912811;28;20251;-72
2022/04/15 08:10:41;;;;;;;16.52;14.82;;;20.60;56.70;;;17.95;71.90;96599.09;4920548;28;20354;-73
2022/04/15 08:13:07;;;;;;;14.23;12.73;;;21.00;56.40;;;18.39;71.41;96601.63;4905902;28;20448;-72
2022/04/15 08:15:33;;;;;;;12.93;11.73;;;21.40;54.80;;;18.88;69.44;96609.31;4902813;28;20059;-72
2022/04/15 08:18:00;;;;;;;14.23;12.68;;;22.00;55.10;;;19.40;68.35;96614.84;4922678;28;20299;-71
2022/04/15 08:20:27;;;;;;;14.35;12.25;;;22.50;51.60;;;19.85;65.54;96611.59;4917920;28;20258;-73
2022/04/15 08:22:53;;;;;;;13.95;12.60;;;22.70;50.30;;;20.24;65.08;96614.53;4913036;28;20212;-73
2022/04/15 08:25:19;;;;;;;12.13;11.00;;;23.10;49.80;;;20.61;62.34;96607.78;4923469;28;20580;-73
2022/04/15 08:27:45;;;;;;;13.35;11.95;;;23.40;47.90;;;20.95;61.46;96607.84;4909716;28;20362;-71
2022/04/15 08:30:12;;;;;;;16.92;12.40;;;23.70;47.10;;;21.26;60.58;96607.28;4908678;28;20451;-73
2022/04/15 08:32:38;;;;;;;13.88;11.98;;;24.00;47.20;;;21.54;59.63;96608.25;4913606;28;20388;-72
2022/04/15 08:35:06;;;;;;;12.60;11.18;;;24.20;46.40;;;21.72;58.36;96616.00;4921235;28;20353;-71
2022/04/15 08:37:33;;;;;;;11.50;10.43;;;24.30;45.30;;;21.87;56.36;96615.41;4906095;28;20337;-72
2022/04/15 08:40:03;;;;;;;12.15;10.30;;;24.40;44.40;;;22.12;55.58;96614.94;4932024;28;20056;-71
2022/04/15 08:42:29;;;;;;;15.23;10.73;;;24.80;44.70;;;22.27;56.23;96612.47;4924452;28;20492;-72
2022/04/15 08:44:56;;;;;;;11.93;10.43;;;24.90;43.50;;;22.49;54.24;96615.13;4910696;28;20438;-71
2022/04/15 08:47:24;;;;;;;13.27;11.95;;;25.10;43.20;;;22.56;53.33;96619.22;4915514;28;20071;-71
2022/04/15 08:49:50;;;;;;;13.63;11.95;;;24.90;43.30;;;22.64;54.17;96617.97;4936686;28;20393;-70
2022/04/15 08:52:17;;;;;;;11.52;10.43;;;25.30;43.80;;;22.78;53.46;96616.50;4885475;28;20838;-73
2022/04/15 08:54:44;;;;;;;11.57;10.38;;;25.50;43.00;;;22.79;53.50;96619.97;4917403;28;20381;-74
2022/04/15 08:57:10;;;;;;;12.07;10.23;;;25.50;42.70;;;22.88;52.34;96613.94;4909814;28;20410;-74
2022/04/15 08:59:40;;;;;;;11.60;10.30;;;25.60;40.60;;;22.96;51.60;96617.22;4923440;28;20382;-74
2022/04/15 09:02:06;;;;;;;13.43;10.50;;;25.60;42.20;;;23.05;51.92;96613.81;4918311;28;20419;-73
2022/04/15 09:04:33;;;;;;;11.80;10.25;;;25.70;40.80;;;23.13;51.22;96618.72;4895523;28;20318;-73
2022/04/15 09:07:00;;;;;;;11.57;10.30;;;26.20;41.20;;;23.32;49.74;96618.34;4898131;28;20300;-75
2022/04/15 09:09:36;;;;;;;12.45;10.30;;;26.40;38.70;;;23.33;47.01;96614.59;4898962;28;20315;-73
2022/04/15 09:12:03;;;;;;;11.05;9.80;;;26.10;38.90;;;23.46;48.86;96614.94;4939126;28;20354;-74
2022/04/15 09:14:29;;;;;;;11.15;9.50;;;26.40;38.40;;;23.66;47.67;96608.13;4924489;28;20328;-75
2022/04/15 09:17:00;;;;;;;12.93;9.43;;;26.70;37.60;;;23.88;47.20;96610.66;4881057;28;20300;-71
2022/04/15 09:19:27;;;;;;;16.60;10.10;;;27.10;36.40;;;24.04;46.39;96607.81;4899223;28;20212;-72
2022/04/15 09:21:55;;;;;;;12.13;9.23;;;27.10;35.80;;;24.14;45.46;96615.91;4887693;28;20345;-72
2022/04/15 09:24:34;;;;;;;12.90;11.35;;;27.10;35.80;;;24.37;43.28;96603.09;4929158;28;20495;-74
2022/04/15 09:27:06;;;;;;;15.80;8.98;;;27.50;36.50;;;24.63;43.13;96603.97;4891972;28;20211;-73
2022/04/15 09:29:34;;;;;;;10.45;8.18;;;27.90;35.30;;;24.76;43.62;96600.78;4899305;28;20220;-72
2022/04/15 09:32:14;;;;;;;10.52;8.27;;;27.80;33.30;;;24.95;41.54;96593.81;4878999;28;20418;-70
2022/04/15 09:34:56;;;;;;;11.23;9.13;;;28.30;34.30;;;25.09;40.87;96604.06;4928207;28;20083;-72
2022/04/15 09:37:30;;;;;;;9.82;8.45;;;28.40;33.60;;;25.12;41.87;96600.84;4915544;28;20351;-73
2022/04/15 09:40:26;;;;;;;10.93;8.00;;;28.40;33.50;;;25.23;40.09;96600.59;4911948;28;20421;-73
2022/04/15 09:42:53;;;;;;;9.82;8.82;;;28.60;33.60;;;25.31;40.79;96601.91;4899130;28;20465;-73
2022/04/15 09:45:30;;;;;;;9.15;7.85;;;28.70;30.70;;;25.40;39.66;96599.50;4921875;28;20359;-74
2022/04/15 09:47:59;;;;;;;11.23;8.88;;;28.90;32.50;;;25.44;39.63;96598.69;4928635;28;20651;-73
2022/04/15 09:50:42;;;;;;;9.70;8.02;;;28.90;31.40;;;25.41;39.02;96591.16;4901595;28;20408;-73
2022/04/15 09:53:12;;;;;;;11.50;8.57;;;28.70;31.90;;;25.48;39.56;96607.84;4913978;28;20302;-73
2022/04/15 09:55:40;;;;;;;10.07;8.38;;;28.70;32.70;;;25.53;39.87;96598.94;4943925;28;20556;-72
2022/04/15 09:58:20;;;;;;;9.88;8.15;;;29.10;30.50;;;25.65;38.64;96597.56;4907949;28;20537;-73
2022/04/15 10:00:49;;;;;;;8.73;7.82;;;29.50;31.10;;;25.86;39.29;96592.97;4898078;28;20337;-73
2022/04/15 10:03:23;;;;;;;11.82;9.35;;;30.00;30.70;;;26.04;37.37;96596.97;4897106;28;20481;-73
2022/04/15 10:05:56;;;;;;;9.18;8.27;;;30.00;29.20;;;26.07;36.64;96593.72;4899561;28;20368;-72
2022/04/15 10:08:25;;;;;;;10.35;8.50;;;29.80;28.80;;;26.16;38.44;96596.66;4900183;28;20425;-71
2022/04/15 10:10:51;;;;;;;7.65;6.80;;;30.40;29.20;;;26.37;38.13;96583.91;4900941;28;20379;-65
2022/04/15 10:13:17;;;;;;;9.82;7.75;;;31.00;27.30;;;26.69;37.35;96578.03;4905839;28;20269;-66